Time;durP1;ratioP1;P1;durP2;ratioP2;P2;SDS_P1;SDS_P2;PMS_P1;PMS_P2;Temp;Humidity;BMP_temperature;BMP_pressure;BME280_temperature;BME280_humidity;BME280_pressure;Samples;Min_cycle;Max_cycle;Signal;HPM_P1;HPM_P2
2022/12/11 00:00:38;;;;;;;17.67;10.50;;;;;;;;;;5038582;28;20221;-28
2022/12/11 00:03:05;;;;;;;16.03;10.23;;;;;;;;;;5032132;28;20206;-25
2022/12/11 00:05:32;;;;;;;17.03;10.80;;;;;;;;;;5031635;28;20199;-29
2022/12/11 00:08:00;;;;;;;18.33;10.70;;;;;;;;;;5026183;28;20254;-27
2022/12/11 00:10:27;;;;;;;16.70;10.73;;;;;;;;;;5028425;28;20218;-26
2022/12/11 00:12:54;;;;;;;16.27;10.27;;;;;;;;;;5027795;28;20204;-29
2022/12/11 00:15:22;;;;;;;16.57;10.17;;;;;;;;;;5036290;28;20251;-28
2022/12/11 00:17:50;;;;;;;17.40;9.67;;;;;;;;;;5018788;28;20199;-30
2022/12/11 00:20:18;;;;;;;10.17;6.43;;;;;;;;;;5014401;28;20203;-24
2022/12/11 00:22:46;;;;;;;15.63;9.17;;;;;;;;;;5035606;28;20222;-30
2022/12/11 00:25:13;;;;;;;14.03;8.93;;;;;;;;;;5032883;28;20296;-27
2022/12/11 00:27:40;;;;;;;17.07;10.47;;;;;;;;;;5029211;28;20222;-31
2022/12/11 00:30:08;;;;;;;17.37;9.63;;;;;;;;;;5034289;28;20229;-31
2022/12/11 00:32:37;;;;;;;13.00;8.93;;;;;;;;;;5032826;28;20302;-29
2022/12/11 00:35:04;;;;;;;15.33;8.60;;;;;;;;;;5019708;28;20257;-27
2022/12/11 00:37:31;;;;;;;14.20;8.90;;;;;;;;;;5028650;28;20222;-28
2022/12/11 00:39:58;;;;;;;13.00;7.80;;;;;;;;;;5039099;28;20197;-27
2022/12/11 00:42:26;;;;;;;11.97;7.53;;;;;;;;;;5020433;28;20226;-29
2022/12/11 00:44:54;;;;;;;13.53;8.27;;;;;;;;;;5024449;28;20239;-27
2022/12/11 00:47:22;;;;;;;12.37;8.13;;;;;;;;;;5020102;28;20200;-29
2022/12/11 00:49:51;;;;;;;12.57;7.87;;;;;;;;;;5023816;28;20241;-29
2022/12/11 00:52:18;;;;;;;12.20;7.93;;;;;;;;;;5028235;28;20226;-31
2022/12/11 00:54:45;;;;;;;13.23;7.97;;;;;;;;;;5031015;28;20204;-30
2022/12/11 00:57:12;;;;;;;13.43;8.43;;;;;;;;;;5032235;28;20199;-29
2022/12/11 00:59:39;;;;;;;12.20;8.20;;;;;;;;;;5025900;28;20206;-29
2022/12/11 01:02:06;;;;;;;12.20;8.00;;;;;;;;;;5033050;28;20228;-30
2022/12/11 01:04:35;;;;;;;14.77;8.67;;;;;;;;;;5030323;28;20203;-30
2022/12/11 01:07:04;;;;;;;12.03;7.60;;;;;;;;;;5028917;28;20262;-28
2022/12/11 01:12:16;;;;;;;11.67;8.07;;;;;;;;;;5026046;28;20535;-26
2022/12/11 01:14:43;;;;;;;12.57;8.37;;;;;;;;;;5022261;28;20212;-25
2022/12/11 01:17:10;;;;;;;14.70;8.77;;;;;;;;;;5033645;28;20212;-30
2022/12/11 01:19:37;;;;;;;13.87;8.93;;;;;;;;;;5035686;28;20190;-30
2022/12/11 01:22:06;;;;;;;11.77;7.87;;;;;;;;;;5032522;28;20225;-31
2022/12/11 01:24:34;;;;;;;11.77;7.47;;;;;;;;;;5045645;28;20817;-27
2022/12/11 01:27:01;;;;;;;11.97;7.53;;;;;;;;;;5027276;28;20210;-30
2022/12/11 01:29:28;;;;;;;8.73;5.77;;;;;;;;;;5029680;28;20246;-26
2022/12/11 01:31:55;;;;;;;10.90;7.33;;;;;;;;;;5050677;28;20217;-28
2022/12/11 01:34:22;;;;;;;10.63;6.43;;;;;;;;;;5054612;28;20202;-27
2022/12/11 01:36:49;;;;;;;10.33;6.60;;;;;;;;;;5034174;28;20262;-32
2022/12/11 01:39:21;;;;;;;10.57;6.77;;;;;;;;;;5039606;28;20197;-27
2022/12/11 01:41:48;;;;;;;10.33;6.83;;;;;;;;;;5028584;28;20256;-28
2022/12/11 01:44:30;;;;;;;8.63;5.50;;;;;;;;;;5036728;28;20205;-29
2022/12/11 01:46:57;;;;;;;10.93;6.20;;;;;;;;;;5022044;28;20210;-29
2022/12/11 01:49:26;;;;;;;9.37;5.00;;;;;;;;;;5027598;28;20309;-28
2022/12/11 01:51:56;;;;;;;9.97;6.13;;;;;;;;;;5029487;28;20218;-29
2022/12/11 01:54:26;;;;;;;10.23;6.30;;;;;;;;;;5033053;28;20198;-26
2022/12/11 01:56:55;;;;;;;5.30;3.50;;;;;;;;;;5028173;28;20202;-29
2022/12/11 01:59:24;;;;;;;10.60;6.37;;;;;;;;;;5041940;28;20209;-26
2022/12/11 02:01:55;;;;;;;10.40;6.00;;;;;;;;;;5032971;28;20245;-32
2022/12/11 02:04:23;;;;;;;10.73;6.73;;;;;;;;;;5031204;28;20198;-30
2022/12/11 02:06:51;;;;;;;9.20;6.60;;;;;;;;;;5027473;28;20199;-32
2022/12/11 02:09:20;;;;;;;12.17;7.80;;;;;;;;;;5032001;28;20210;-27
2022/12/11 02:11:53;;;;;;;10.20;6.50;;;;;;;;;;5035570;28;20335;-32
2022/12/11 02:14:25;;;;;;;11.60;7.03;;;;;;;;;;5040277;28;20288;-29
2022/12/11 02:16:56;;;;;;;10.60;7.07;;;;;;;;;;5032295;28;20203;-28
2022/12/11 02:19:32;;;;;;;10.73;6.40;;;;;;;;;;5028263;28;20294;-29
2022/12/11 02:22:06;;;;;;;9.87;6.57;;;;;;;;;;5032632;28;20217;-28
2022/12/11 02:24:43;;;;;;;7.27;4.83;;;;;;;;;;5041837;28;20240;-29
2022/12/11 02:27:23;;;;;;;8.40;6.20;;;;;;;;;;5032444;28;20214;-29
2022/12/11 02:29:54;;;;;;;7.33;5.27;;;;;;;;;;5028605;28;20208;-30
2022/12/11 02:32:22;;;;;;;8.20;5.97;;;;;;;;;;5052574;28;20222;-25
2022/12/11 02:34:54;;;;;;;8.13;5.70;;;;;;;;;;5025412;28;20199;-28
2022/12/11 02:37:23;;;;;;;8.60;5.73;;;;;;;;;;5021699;28;20211;-29
2022/12/11 02:39:52;;;;;;;8.43;6.50;;;;;;;;;;5031241;28;20201;-30
2022/12/11 02:42:21;;;;;;;9.23;5.97;;;;;;;;;;5036976;28;20214;-28
2022/12/11 02:44:49;;;;;;;8.43;6.23;;;;;;;;;;5031469;28;20231;-25
2022/12/11 02:47:18;;;;;;;8.57;6.50;;;;;;;;;;5036784;28;20205;-28
2022/12/11 02:49:48;;;;;;;9.90;6.70;;;;;;;;;;5032614;28;20221;-27
2022/12/11 02:52:18;;;;;;;9.00;6.20;;;;;;;;;;5026333;28;20306;-26
2022/12/11 02:54:45;;;;;;;10.97;6.70;;;;;;;;;;5036645;28;20209;-28
2022/12/11 02:57:22;;;;;;;8.97;6.03;;;;;;;;;;5019508;28;20194;-26
2022/12/11 03:02:19;;;;;;;10.60;6.73;;;;;;;;;;5033397;28;20245;-25
2022/12/11 03:04:46;;;;;;;10.77;7.03;;;;;;;;;;5034214;28;20214;-27
2022/12/11 03:07:16;;;;;;;9.53;6.53;;;;;;;;;;5022181;28;20248;-30
2022/12/11 03:09:45;;;;;;;11.53;7.33;;;;;;;;;;5026853;28;20230;-28
2022/12/11 03:12:13;;;;;;;10.63;7.57;;;;;;;;;;5021168;28;20233;-29
2022/12/11 03:14:41;;;;;;;11.97;7.87;;;;;;;;;;5027068;28;20202;-28
2022/12/11 03:17:13;;;;;;;11.83;8.03;;;;;;;;;;5041940;28;20206;-31
2022/12/11 03:19:43;;;;;;;11.27;7.70;;;;;;;;;;5035505;28;20207;-28
2022/12/11 03:22:11;;;;;;;12.37;7.07;;;;;;;;;;5028385;28;20233;-30
2022/12/11 03:24:40;;;;;;;13.93;8.90;;;;;;;;;;5046640;28;20289;-28
2022/12/11 03:27:12;;;;;;;15.47;8.13;;;;;;;;;;5030531;28;20203;-29
2022/12/11 03:29:41;;;;;;;10.67;7.80;;;;;;;;;;5037107;28;20206;-31
2022/12/11 03:32:10;;;;;;;9.53;7.17;;;;;;;;;;5037380;28;20334;-25
2022/12/11 03:34:42;;;;;;;9.20;6.40;;;;;;;;;;5026269;28;20722;-28
2022/12/11 03:37:11;;;;;;;11.70;7.67;;;;;;;;;;5014099;28;20211;-26
2022/12/11 03:39:39;;;;;;;10.53;6.97;;;;;;;;;;5031784;28;20217;-28
2022/12/11 03:42:08;;;;;;;10.87;7.50;;;;;;;;;;5029855;28;20222;-30
2022/12/11 03:44:36;;;;;;;14.53;9.23;;;;;;;;;;5032998;28;20205;-29
2022/12/11 03:47:06;;;;;;;12.83;7.80;;;;;;;;;;5026965;28;20221;-28
2022/12/11 03:49:35;;;;;;;12.43;8.50;;;;;;;;;;5025644;28;20243;-30
2022/12/11 03:52:03;;;;;;;14.97;9.37;;;;;;;;;;5022126;28;20237;-31
2022/12/11 03:54:32;;;;;;;14.80;9.33;;;;;;;;;;5049251;28;20210;-30
2022/12/11 03:57:01;;;;;;;13.20;9.23;;;;;;;;;;5036623;28;20202;-24
2022/12/11 03:59:28;;;;;;;12.77;8.93;;;;;;;;;;5041330;28;20194;-30
2022/12/11 04:01:55;;;;;;;13.67;8.73;;;;;;;;;;5032087;28;20226;-25
2022/12/11 04:04:22;;;;;;;13.87;8.87;;;;;;;;;;5030129;28;20210;-30
2022/12/11 04:06:49;;;;;;;17.70;9.57;;;;;;;;;;5023972;28;20202;-29
2022/12/11 04:09:16;;;;;;;14.83;9.43;;;;;;;;;;5047364;28;20228;-28
2022/12/11 04:11:45;;;;;;;10.70;7.03;;;;;;;;;;5034758;28;20237;-30
2022/12/11 04:16:58;;;;;;;12.90;8.57;;;;;;;;;;5039856;28;20285;-30
2022/12/11 04:24:56;;;;;;;13.07;8.43;;;;;;;;;;5036614;28;20182;-26
2022/12/11 04:30:11;;;;;;;14.17;8.87;;;;;;;;;;5035087;28;20257;-30
2022/12/11 04:32:38;;;;;;;13.57;9.20;;;;;;;;;;5035114;28;20209;-29
2022/12/11 04:35:06;;;;;;;12.37;8.40;;;;;;;;;;5030067;28;20206;-25
2022/12/11 04:37:33;;;;;;;13.93;9.07;;;;;;;;;;5040702;28;20275;-29
2022/12/11 04:40:00;;;;;;;14.53;8.60;;;;;;;;;;5040852;28;20261;-29
2022/12/11 04:42:37;;;;;;;11.50;8.27;;;;;;;;;;5032063;28;20277;-28
2022/12/11 04:45:04;;;;;;;13.90;8.80;;;;;;;;;;5031954;28;20213;-29
2022/12/11 04:47:31;;;;;;;15.87;9.57;;;;;;;;;;5024877;28;20217;-31
2022/12/11 04:49:58;;;;;;;16.20;10.13;;;;;;;;;;5023795;28;20221;-27
2022/12/11 04:52:26;;;;;;;14.63;9.23;;;;;;;;;;5048290;28;20232;-29
2022/12/11 04:54:53;;;;;;;14.97;9.53;;;;;;;;;;5045503;28;20269;-28
2022/12/11 04:57:20;;;;;;;14.87;10.37;;;;;;;;;;5023179;28;20206;-27
2022/12/11 04:59:49;;;;;;;15.93;10.00;;;;;;;;;;5030172;28;20205;-29
2022/12/11 05:02:16;;;;;;;15.10;9.97;;;;;;;;;;5053830;28;20230;-29
2022/12/11 05:04:43;;;;;;;15.53;8.77;;;;;;;;;;5044795;28;20219;-27
2022/12/11 05:07:11;;;;;;;14.07;9.30;;;;;;;;;;5032759;28;20203;-31
2022/12/11 05:09:38;;;;;;;14.00;8.97;;;;;;;;;;5032619;28;20222;-28
2022/12/11 05:12:05;;;;;;;15.33;8.97;;;;;;;;;;5030713;28;20229;-27
2022/12/11 05:14:32;;;;;;;14.90;9.10;;;;;;;;;;5035953;28;20304;-27
2022/12/11 05:17:01;;;;;;;13.53;8.57;;;;;;;;;;5033246;28;20205;-28
2022/12/11 05:19:28;;;;;;;12.10;8.27;;;;;;;;;;5031884;28;20194;-28
2022/12/11 05:21:55;;;;;;;12.27;7.53;;;;;;;;;;5035866;28;20248;-28
2022/12/11 05:24:22;;;;;;;14.07;9.10;;;;;;;;;;5035137;28;20242;-29
2022/12/11 05:26:49;;;;;;;12.40;8.07;;;;;;;;;;5027721;28;20217;-26
2022/12/11 05:29:17;;;;;;;12.97;7.53;;;;;;;;;;5025331;28;20224;-29
2022/12/11 05:31:44;;;;;;;12.07;8.13;;;;;;;;;;5025013;28;20721;-26
2022/12/11 05:34:14;;;;;;;11.60;7.77;;;;;;;;;;5027043;28;20214;-29
2022/12/11 05:36:41;;;;;;;12.70;8.00;;;;;;;;;;5026632;28;20233;-30
2022/12/11 05:39:08;;;;;;;13.30;7.93;;;;;;;;;;5040126;28;20202;-31
2022/12/11 05:41:35;;;;;;;11.83;7.73;;;;;;;;;;5035758;28;20222;-28
2022/12/11 05:44:03;;;;;;;13.87;8.83;;;;;;;;;;5031192;28;20210;-28
2022/12/11 05:46:30;;;;;;;12.60;7.63;;;;;;;;;;5031420;28;20202;-28
2022/12/11 05:48:59;;;;;;;12.87;8.37;;;;;;;;;;5027622;28;20240;-29
2022/12/11 05:51:28;;;;;;;15.80;9.83;;;;;;;;;;5024448;28;20297;-27
2022/12/11 05:53:56;;;;;;;13.90;8.67;;;;;;;;;;5032671;28;20199;-26
2022/12/11 05:56:25;;;;;;;11.97;7.93;;;;;;;;;;5026589;28;20221;-25
2022/12/11 05:58:52;;;;;;;14.53;8.77;;;;;;;;;;5025506;28;20202;-24
2022/12/11 06:01:20;;;;;;;13.63;8.30;;;;;;;;;;5032713;28;20305;-29
2022/12/11 06:03:47;;;;;;;13.43;9.23;;;;;;;;;;5030476;28;20293;-30
2022/12/11 06:06:15;;;;;;;12.93;7.90;;;;;;;;;;5031925;28;20210;-29
2022/12/11 06:08:44;;;;;;;13.37;8.10;;;;;;;;;;5032746;28;20237;-27
2022/12/11 06:11:12;;;;;;;13.50;8.57;;;;;;;;;;5028252;28;20245;-25
2022/12/11 06:13:39;;;;;;;12.73;8.40;;;;;;;;;;5024849;28;20203;-27
2022/12/11 06:16:07;;;;;;;11.47;7.27;;;;;;;;;;5032179;28;20868;-28
2022/12/11 06:18:36;;;;;;;13.43;7.90;;;;;;;;;;5031706;28;20214;-31
2022/12/11 06:21:11;;;;;;;10.70;7.63;;;;;;;;;;5027296;28;20219;-29
2022/12/11 06:23:38;;;;;;;14.13;7.97;;;;;;;;;;5031565;28;20284;-29
2022/12/11 06:26:06;;;;;;;13.77;8.23;;;;;;;;;;5025702;28;20210;-26
2022/12/11 06:28:33;;;;;;;11.73;7.50;;;;;;;;;;5033248;28;20207;-31
2022/12/11 06:31:01;;;;;;;13.10;7.77;;;;;;;;;;5043618;28;20224;-29
2022/12/11 06:33:29;;;;;;;12.20;8.17;;;;;;;;;;5037337;28;20210;-28
2022/12/11 06:35:56;;;;;;;12.33;7.30;;;;;;;;;;5024738;28;20226;-29
2022/12/11 06:38:23;;;;;;;11.57;7.40;;;;;;;;;;5031669;28;20217;-28
2022/12/11 06:40:55;;;;;;;12.23;7.87;;;;;;;;;;5044242;28;20222;-30
2022/12/11 06:43:24;;;;;;;14.17;8.63;;;;;;;;;;5033412;28;20214;-30
2022/12/11 06:45:51;;;;;;;12.53;7.60;;;;;;;;;;5048757;28;20195;-28
2022/12/11 06:48:19;;;;;;;13.57;7.87;;;;;;;;;;5034482;28;20298;-28
2022/12/11 06:50:46;;;;;;;12.03;7.53;;;;;;;;;;5029244;28;20222;-30
2022/12/11 06:53:14;;;;;;;12.07;7.70;;;;;;;;;;5028572;28;20209;-28
2022/12/11 06:55:41;;;;;;;12.23;8.03;;;;;;;;;;5033384;28;20203;-31
2022/12/11 06:58:09;;;;;;;12.67;8.00;;;;;;;;;;5032975;28;20342;-28
2022/12/11 07:00:38;;;;;;;12.20;8.00;;;;;;;;;;5043138;28;20229;-28
2022/12/11 07:03:05;;;;;;;12.63;7.80;;;;;;;;;;5034916;28;20209;-30
2022/12/11 07:05:33;;;;;;;13.00;7.33;;;;;;;;;;5032384;28;20203;-27
2022/12/11 07:08:00;;;;;;;15.30;7.53;;;;;;;;;;5042146;28;20206;-30
2022/12/11 07:10:28;;;;;;;14.27;8.30;;;;;;;;;;5039388;28;20226;-30
2022/12/11 07:12:55;;;;;;;15.17;9.17;;;;;;;;;;5040197;28;20206;-29
2022/12/11 07:15:22;;;;;;;12.30;7.87;;;;;;;;;;5033015;28;20201;-29
2022/12/11 07:17:51;;;;;;;11.90;7.53;;;;;;;;;;5035929;28;20202;-24
2022/12/11 07:20:18;;;;;;;8.57;5.97;;;;;;;;;;5035586;28;20208;-31
2022/12/11 07:22:45;;;;;;;10.47;7.07;;;;;;;;;;5031347;28;20206;-27
2022/12/11 07:25:12;;;;;;;12.77;8.00;;;;;;;;;;5044224;28;20289;-29
2022/12/11 07:27:40;;;;;;;9.73;6.57;;;;;;;;;;5029973;28;20400;-25
2022/12/11 07:30:08;;;;;;;14.37;8.30;;;;;;;;;;5054716;28;20225;-28
2022/12/11 07:32:35;;;;;;;11.57;7.37;;;;;;;;;;5036848;28;20210;-29
2022/12/11 07:35:04;;;;;;;13.37;8.13;;;;;;;;;;5028958;28;20199;-25
2022/12/11 07:37:31;;;;;;;10.20;6.23;;;;;;;;;;5042293;28;20198;-28
2022/12/11 07:39:58;;;;;;;12.50;7.50;;;;;;;;;;5048734;28;20494;-25
2022/12/11 07:42:25;;;;;;;10.80;6.60;;;;;;;;;;5030109;28;20226;-27
2022/12/11 07:44:53;;;;;;;12.23;7.10;;;;;;;;;;5033838;28;20203;-26
2022/12/11 07:47:20;;;;;;;13.73;8.40;;;;;;;;;;5035120;28;20202;-28
2022/12/11 07:49:47;;;;;;;13.47;7.37;;;;;;;;;;5032733;28;20212;-31
2022/12/11 07:52:15;;;;;;;12.10;8.13;;;;;;;;;;5035295;28;20230;-26
2022/12/11 07:54:42;;;;;;;14.83;8.00;;;;;;;;;;5034990;28;20202;-26
2022/12/11 07:57:11;;;;;;;13.23;8.30;;;;;;;;;;5038087;28;20209;-31
2022/12/11 07:59:38;;;;;;;12.47;8.93;;;;;;;;;;5037064;28;20206;-29
2022/12/11 08:02:05;;;;;;;11.83;8.00;;;;;;;;;;5030178;28;20240;-30
2022/12/11 08:04:32;;;;;;;11.23;7.93;;;;;;;;;;5041061;28;20207;-28
2022/12/11 08:06:59;;;;;;;10.87;7.10;;;;;;;;;;5034635;28;20211;-27
2022/12/11 08:09:28;;;;;;;14.03;7.93;;;;;;;;;;5018481;28;20550;-26
2022/12/11 08:11:55;;;;;;;12.13;7.90;;;;;;;;;;5021095;28;20229;-28
2022/12/11 08:14:22;;;;;;;12.00;7.73;;;;;;;;;;5033348;28;20230;-26
2022/12/11 08:16:49;;;;;;;11.40;7.67;;;;;;;;;;5023274;28;20210;-28
2022/12/11 08:19:17;;;;;;;11.57;7.37;;;;;;;;;;5023902;28;20290;-29
2022/12/11 08:21:46;;;;;;;13.20;7.63;;;;;;;;;;5019244;28;20226;-24
2022/12/11 08:24:19;;;;;;;9.60;6.80;;;;;;;;;;5031412;28;20294;-26
2022/12/11 08:26:47;;;;;;;13.73;8.10;;;;;;;;;;5020036;28;20213;-30
2022/12/11 08:29:15;;;;;;;9.60;6.73;;;;;;;;;;5037775;28;20213;-27
2022/12/11 08:31:42;;;;;;;14.07;7.80;;;;;;;;;;5039147;28;20230;-26
2022/12/11 08:34:12;;;;;;;13.37;7.93;;;;;;;;;;5030056;28;20246;-25
2022/12/11 08:36:40;;;;;;;13.63;7.93;;;;;;;;;;5022073;28;20211;-28
2022/12/11 08:39:07;;;;;;;12.63;8.13;;;;;;;;;;5031525;28;20234;-28
2022/12/11 08:41:40;;;;;;;13.47;7.93;;;;;;;;;;5027012;28;20229;-28
2022/12/11 08:44:11;;;;;;;11.20;7.00;;;;;;;;;;5024983;28;20206;-28
2022/12/11 08:46:39;;;;;;;13.90;9.03;;;;;;;;;;5032901;28;20213;-25
2022/12/11 08:49:06;;;;;;;13.93;8.70;;;;;;;;;;5030982;28;20199;-29
2022/12/11 08:51:33;;;;;;;12.43;7.63;;;;;;;;;;5028240;28;20230;-31
2022/12/11 08:54:01;;;;;;;14.10;7.73;;;;;;;;;;5033965;28;20206;-28
2022/12/11 08:56:29;;;;;;;12.47;7.47;;;;;;;;;;5027473;28;20218;-27
2022/12/11 08:58:56;;;;;;;12.53;7.97;;;;;;;;;;5153887;22;20240;-28
2022/12/11 09:01:25;;;;;;;12.13;7.87;;;;;;;;;;5069867;28;20217;-28
2022/12/11 09:03:53;;;;;;;14.10;8.40;;;;;;;;;;5091700;28;20236;-30
2022/12/11 09:06:21;;;;;;;11.23;7.40;;;;;;;;;;5091840;28;20204;-27
2022/12/11 09:08:50;;;;;;;12.27;7.90;;;;;;;;;;5059682;28;20205;-29
2022/12/11 09:11:18;;;;;;;12.27;8.03;;;;;;;;;;5066612;28;20226;-28
2022/12/11 09:13:45;;;;;;;11.27;7.73;;;;;;;;;;5063370;28;20286;-30
2022/12/11 09:16:14;;;;;;;12.83;7.03;;;;;;;;;;5063485;28;20209;-30
2022/12/11 09:18:42;;;;;;;11.70;7.27;;;;;;;;;;5069815;28;20301;-28
2022/12/11 09:21:10;;;;;;;11.40;7.37;;;;;;;;;;5070626;28;20299;-27
2022/12/11 09:23:38;;;;;;;11.23;7.17;;;;;;;;;;5064328;28;20255;-26
2022/12/11 09:26:05;;;;;;;11.23;7.50;;;;;;;;;;5061537;28;20217;-27
2022/12/11 09:28:33;;;;;;;10.83;7.37;;;;;;;;;;5069276;28;20208;-30
2022/12/11 09:31:00;;;;;;;12.80;7.60;;;;;;;;;;5068556;28;20213;-29
2022/12/11 09:33:27;;;;;;;12.63;8.23;;;;;;;;;;5066369;28;20213;-28
2022/12/11 09:35:59;;;;;;;13.07;7.53;;;;;;;;;;5069897;28;20201;-27
2022/12/11 09:38:26;;;;;;;15.03;9.13;;;;;;;;;;5065140;28;20207;-28
2022/12/11 09:40:54;;;;;;;12.40;8.10;;;;;;;;;;5061290;28;20289;-28
2022/12/11 09:43:30;;;;;;;15.63;9.10;;;;;;;;;;5068312;28;20209;-27
2022/12/11 09:45:58;;;;;;;13.40;8.03;;;;;;;;;;5068490;28;20207;-29
2022/12/11 09:48:26;;;;;;;15.87;8.97;;;;;;;;;;5070124;28;20201;-26
2022/12/11 09:50:54;;;;;;;12.03;7.60;;;;;;;;;;5064340;28;20225;-29
2022/12/11 09:53:27;;;;;;;14.80;8.37;;;;;;;;;;5068723;28;20216;-27
2022/12/11 09:55:56;;;;;;;12.40;8.07;;;;;;;;;;5061433;28;20217;-26
2022/12/11 09:58:26;;;;;;;14.57;8.40;;;;;;;;;;5067508;28;20213;-27
2022/12/11 10:00:56;;;;;;;12.67;8.07;;;;;;;;;;5064012;28;20223;-26
2022/12/11 10:03:32;;;;;;;13.40;8.60;;;;;;;;;;5070620;28;20205;-31
2022/12/11 10:06:02;;;;;;;16.17;8.97;;;;;;;;;;5069143;28;20213;-28
2022/12/11 10:08:32;;;;;;;13.70;7.90;;;;;;;;;;5066163;28;20204;-29
2022/12/11 10:11:06;;;;;;;13.10;7.77;;;;;;;;;;5062931;28;20226;-28
2022/12/11 10:13:39;;;;;;;14.00;8.67;;;;;;;;;;5062954;28;20539;-32
2022/12/11 10:16:13;;;;;;;15.17;8.93;;;;;;;;;;5082166;28;20204;-26
2022/12/11 10:18:41;;;;;;;12.33;7.90;;;;;;;;;;5053653;28;20201;-32
2022/12/11 10:21:08;;;;;;;14.00;8.33;;;;;;;;;;5066767;28;20223;-25
2022/12/11 10:23:41;;;;;;;11.87;7.60;;;;;;;;;;5080549;28;20193;-25
2022/12/11 10:26:10;;;;;;;11.63;7.00;;;;;;;;;;5066118;28;20232;-27
2022/12/11 10:28:37;;;;;;;14.37;9.00;;;;;;;;;;5063860;28;20213;-27
2022/12/11 10:31:10;;;;;;;15.37;9.57;;;;;;;;;;5087275;28;20228;-29
2022/12/11 10:33:42;;;;;;;13.13;8.13;;;;;;;;;;5092907;28;20200;-27
2022/12/11 10:36:11;;;;;;;14.23;8.60;;;;;;;;;;5074405;28;20205;-29
2022/12/11 10:38:43;;;;;;;13.00;8.20;;;;;;;;;;5079469;28;20209;-29
2022/12/11 10:41:12;;;;;;;15.93;8.30;;;;;;;;;;5059967;28;20217;-28
2022/12/11 10:43:41;;;;;;;12.90;7.80;;;;;;;;;;5063698;28;20212;-30
2022/12/11 10:46:15;;;;;;;14.53;8.67;;;;;;;;;;5076142;28;20211;-31
2022/12/11 10:48:49;;;;;;;12.77;8.30;;;;;;;;;;5062180;28;20189;-25
2022/12/11 10:51:16;;;;;;;11.67;7.53;;;;;;;;;;5065770;28;20279;-29
2022/12/11 10:53:50;;;;;;;11.77;7.53;;;;;;;;;;5072444;28;20296;-31
2022/12/11 10:56:25;;;;;;;13.27;9.20;;;;;;;;;;5066650;28;20193;-28
2022/12/11 10:58:52;;;;;;;14.67;9.20;;;;;;;;;;5083731;28;20207;-27
2022/12/11 11:01:21;;;;;;;13.60;8.63;;;;;;;;;;5083219;28;20229;-29
2022/12/11 11:03:57;;;;;;;14.80;8.77;;;;;;;;;;5052599;28;20212;-30
2022/12/11 11:06:25;;;;;;;13.07;8.37;;;;;;;;;;5061559;28;20205;-28
2022/12/11 11:08:54;;;;;;;12.37;8.30;;;;;;;;;;5080372;28;20215;-29
2022/12/11 11:11:26;;;;;;;12.63;7.90;;;;;;;;;;5069668;28;20240;-26
2022/12/11 11:14:04;;;;;;;12.73;8.23;;;;;;;;;;5069435;28;20205;-27
2022/12/11 11:16:32;;;;;;;12.80;7.50;;;;;;;;;;5068754;28;20193;-28
2022/12/11 11:18:59;;;;;;;11.40;7.60;;;;;;;;;;5066719;28;20223;-29
2022/12/11 11:21:28;;;;;;;12.63;7.73;;;;;;;;;;5073481;28;20316;-26
2022/12/11 11:23:57;;;;;;;12.63;8.37;;;;;;;;;;5075689;28;20201;-30
2022/12/11 11:26:25;;;;;;;12.53;8.50;;;;;;;;;;5071132;28;20265;-31
2022/12/11 11:28:53;;;;;;;14.50;8.10;;;;;;;;;;5069229;28;20283;-29
2022/12/11 11:31:22;;;;;;;17.77;9.10;;;;;;;;;;5076197;28;20217;-29
2022/12/11 11:33:55;;;;;;;13.57;8.23;;;;;;;;;;5073296;28;20209;-27
2022/12/11 11:36:23;;;;;;;15.43;8.93;;;;;;;;;;5068334;28;20206;-29
2022/12/11 11:38:57;;;;;;;13.00;8.20;;;;;;;;;;5082219;28;20201;-27
2022/12/11 11:41:29;;;;;;;13.73;8.33;;;;;;;;;;5069392;28;20240;-26
2022/12/11 11:43:58;;;;;;;15.40;7.63;;;;;;;;;;5074756;28;20203;-27
2022/12/11 11:46:27;;;;;;;15.23;8.50;;;;;;;;;;5077540;28;20198;-23
2022/12/11 11:48:59;;;;;;;14.43;8.20;;;;;;;;;;5072640;28;20205;-31
2022/12/11 11:51:30;;;;;;;15.40;8.60;;;;;;;;;;5064504;28;20279;-31
2022/12/11 11:53:58;;;;;;;14.87;8.30;;;;;;;;;;5074492;28;20205;-23
2022/12/11 11:56:30;;;;;;;14.07;8.90;;;;;;;;;;5065082;28;20210;-29
2022/12/11 11:59:12;;;;;;;17.37;8.13;;;;;;;;;;5067701;28;20220;-27
2022/12/11 12:01:41;;;;;;;16.40;9.40;;;;;;;;;;5074372;28;20329;-25
2022/12/11 12:04:09;;;;;;;13.33;8.93;;;;;;;;;;5071241;28;20209;-28
2022/12/11 12:06:43;;;;;;;13.83;8.40;;;;;;;;;;5070979;28;20210;-30
2022/12/11 12:09:16;;;;;;;15.87;8.90;;;;;;;;;;5090034;28;20197;-27
2022/12/11 12:11:48;;;;;;;13.53;8.47;;;;;;;;;;5060595;28;20228;-29
2022/12/11 12:14:18;;;;;;;15.60;9.33;;;;;;;;;;5081874;28;20204;-28
2022/12/11 12:16:49;;;;;;;14.13;8.40;;;;;;;;;;5081822;28;20233;-28
2022/12/11 12:19:20;;;;;;;13.07;8.10;;;;;;;;;;5075609;28;20209;-29
2022/12/11 12:21:49;;;;;;;14.67;8.03;;;;;;;;;;5064905;28;20225;-25
2022/12/11 12:24:21;;;;;;;14.10;8.73;;;;;;;;;;5072248;28;20197;-27
2022/12/11 12:26:52;;;;;;;15.03;8.63;;;;;;;;;;5062111;28;20201;-32
2022/12/11 12:29:25;;;;;;;14.33;8.30;;;;;;;;;;5070093;28;20285;-31
2022/12/11 12:31:58;;;;;;;12.17;7.87;;;;;;;;;;5064885;28;20233;-26
2022/12/11 12:34:30;;;;;;;13.33;8.43;;;;;;;;;;5070115;28;20215;-25
2022/12/11 12:37:02;;;;;;;13.63;7.97;;;;;;;;;;5058558;28;20209;-29
2022/12/11 12:39:32;;;;;;;13.57;8.10;;;;;;;;;;5069022;28;20209;-29
2022/12/11 12:42:04;;;;;;;12.97;8.23;;;;;;;;;;5053870;28;20312;-32
2022/12/11 12:44:33;;;;;;;12.57;7.63;;;;;;;;;;5075650;28;20235;-27
2022/12/11 12:47:01;;;;;;;12.73;8.00;;;;;;;;;;5064648;28;20206;-29
2022/12/11 12:49:34;;;;;;;15.10;7.87;;;;;;;;;;5061516;28;20304;-28
2022/12/11 12:52:02;;;;;;;13.13;7.80;;;;;;;;;;5082477;28;20255;-27
2022/12/11 12:54:30;;;;;;;11.27;8.43;;;;;;;;;;5090977;28;20204;-29
2022/12/11 12:56:58;;;;;;;13.80;8.13;;;;;;;;;;5062193;28;20201;-30
2022/12/11 12:59:27;;;;;;;13.90;8.20;;;;;;;;;;5078263;28;20228;-31
2022/12/11 13:01:57;;;;;;;12.73;8.20;;;;;;;;;;5070794;28;20221;-31
2022/12/11 13:04:35;;;;;;;15.23;8.70;;;;;;;;;;5065666;28;20288;-32
2022/12/11 13:07:12;;;;;;;12.80;7.80;;;;;;;;;;5074289;28;20211;-28
2022/12/11 13:09:39;;;;;;;13.47;8.50;;;;;;;;;;5070616;28;20201;-29
2022/12/11 13:12:13;;;;;;;12.50;7.77;;;;;;;;;;5060610;28;20229;-29
2022/12/11 13:14:41;;;;;;;12.63;7.83;;;;;;;;;;5068278;28;20208;-26
2022/12/11 13:17:24;;;;;;;12.43;8.00;;;;;;;;;;5075213;28;20288;-28
2022/12/11 13:19:56;;;;;;;12.90;7.57;;;;;;;;;;5058698;28;20212;-30
2022/12/11 13:22:24;;;;;;;11.80;7.50;;;;;;;;;;5086088;28;20224;-29
2022/12/11 13:25:00;;;;;;;13.07;8.10;;;;;;;;;;5066647;28;20233;-27
2022/12/11 13:27:36;;;;;;;15.93;8.73;;;;;;;;;;5069587;28;20200;-31
2022/12/11 13:30:21;;;;;;;12.07;7.30;;;;;;;;;;5054533;28;20288;-28
2022/12/11 13:32:50;;;;;;;12.70;7.73;;;;;;;;;;5054078;28;20209;-28
2022/12/11 13:35:18;;;;;;;11.90;7.87;;;;;;;;;;5066812;28;20288;-29
2022/12/11 13:37:47;;;;;;;12.87;7.90;;;;;;;;;;5080374;28;20225;-30
2022/12/11 13:40:17;;;;;;;13.13;8.17;;;;;;;;;;5060091;28;20210;-31
2022/12/11 13:42:49;;;;;;;9.67;6.37;;;;;;;;;;5049588;28;20208;-26
2022/12/11 13:45:23;;;;;;;16.00;7.93;;;;;;;;;;5085177;28;20734;-31
2022/12/11 13:47:50;;;;;;;12.73;7.90;;;;;;;;;;5084093;28;20230;-29
2022/12/11 13:50:21;;;;;;;11.33;7.47;;;;;;;;;;5073844;28;20214;-30
2022/12/11 13:52:53;;;;;;;12.20;7.70;;;;;;;;;;5082391;28;20238;-28
2022/12/11 13:55:23;;;;;;;12.27;7.93;;;;;;;;;;5086506;28;20212;-26
2022/12/11 13:57:51;;;;;;;13.90;8.63;;;;;;;;;;5052127;28;20243;-29
2022/12/11 14:00:22;;;;;;;16.00;8.50;;;;;;;;;;5076202;28;20212;-27
2022/12/11 14:02:52;;;;;;;13.83;8.20;;;;;;;;;;5070230;28;20224;-31
2022/12/11 14:05:20;;;;;;;13.43;8.10;;;;;;;;;;5064066;28;20232;-25
2022/12/11 14:07:48;;;;;;;14.83;8.40;;;;;;;;;;5067075;28;20205;-26
2022/12/11 14:10:17;;;;;;;14.27;8.20;;;;;;;;;;5075671;28;20207;-29
2022/12/11 14:12:46;;;;;;;12.50;7.83;;;;;;;;;;5053437;28;20229;-29
2022/12/11 14:15:15;;;;;;;15.60;8.47;;;;;;;;;;5077694;28;20234;-29
2022/12/11 14:17:44;;;;;;;16.53;9.10;;;;;;;;;;5081213;28;20471;-30
2022/12/11 14:20:16;;;;;;;13.37;7.73;;;;;;;;;;5055744;28;20201;-28
2022/12/11 14:22:44;;;;;;;14.27;8.63;;;;;;;;;;5073699;28;20279;-29
2022/12/11 14:25:20;;;;;;;11.50;8.03;;;;;;;;;;5090202;28;20227;-28
2022/12/11 14:27:48;;;;;;;14.30;8.50;;;;;;;;;;5060738;28;20238;-28
2022/12/11 14:30:21;;;;;;;12.77;7.70;;;;;;;;;;5086176;28;20193;-28
2022/12/11 14:32:50;;;;;;;10.10;6.90;;;;;;;;;;5050722;28;20214;-26
2022/12/11 14:35:22;;;;;;;13.80;7.93;;;;;;;;;;5052258;28;20205;-30
2022/12/11 14:37:49;;;;;;;16.17;8.93;;;;;;;;;;5071580;28;20197;-29
2022/12/11 14:40:17;;;;;;;15.37;8.50;;;;;;;;;;5078923;28;20216;-27
2022/12/11 14:42:47;;;;;;;16.60;8.13;;;;;;;;;;5060550;28;20207;-27
2022/12/11 14:45:19;;;;;;;14.17;8.50;;;;;;;;;;5077568;28;20307;-26
2022/12/11 14:47:47;;;;;;;14.33;8.00;;;;;;;;;;5055572;28;20212;-29
2022/12/11 14:50:18;;;;;;;14.53;8.80;;;;;;;;;;5058928;28;20205;-28
2022/12/11 14:52:47;;;;;;;9.80;6.07;;;;;;;;;;5070427;28;20225;-28
2022/12/11 14:55:15;;;;;;;15.37;8.37;;;;;;;;;;5072004;28;20197;-26
2022/12/11 14:57:44;;;;;;;14.17;7.53;;;;;;;;;;5061333;28;20205;-29